Nearby METAR Reports

 

KIWA - Chandler/Mesa, Arizona, USA
Distance from station: SSW 10mi, 16km
Updated: Thu, 26-Nov-2020 2:35am MST
Clear
Clear
 Wind from ESE
Wind: ESE 9 mph , 15 km/h
Temperature: 45°F , 7°C
Wind Chill: 40°F , 4°C
Dew Point: 16°F , -9°C
Humidity: 31%
Barometer: 30.01 inHg , 1016.3 hPa
Clouds: Clear
Visibility: 10 miles , 16 km
2020/11/26 09:35 KIWA 260935Z AUTO 11008KT 10SM CLR 07/M09 A3001 RMK AO2 T00661088
KFFZ - Mesa/Falcon Fld, Arizona, USA
Distance from station: WNW 8mi, 13km
Updated: Thu, 26-Nov-2020 1:54am MST
Clear
Clear
 Wind from NE
Wind: NE 5 mph , 7 km/h
Temperature: 50°F , 10°C
Wind Chill: 48°F , 9°C
Dew Point: 21°F , -6°C
Humidity: 32%
Barometer: 29.99 inHg , 1015.6 hPa
Clouds: Clear
Visibility: 10 miles , 16 km
2020/11/26 08:54 KFFZ 260854Z 04004KT 10SM CLR 10/M06 A2999 RMK AO2 SLP142 T01001056 56009
KPHX - Phoenix/Sky Hrbr, Arizona, USA
Distance from station: W 25mi, 41km
Updated: Thu, 26-Nov-2020 1:51am MST
Clear
Clear
 Wind from E
Wind: E 6 mph , 9 km/h
Temperature: 52°F , 11°C
Dew Point: 25°F , -4°C
Humidity: 35%
Barometer: 29.97 inHg , 1014.9 hPa
Clouds: Clear
Visibility: 10 miles , 16 km
2020/11/26 08:51 KPHX 260851Z 09005KT 10SM CLR 11/M04 A2997 RMK AO2 SLP141 T01061039 58008

Metar display script from Saratoga-Weather.org